FLIWT26 WIII-AYPY
Flight info
| Callsign | FLIWT26 |
|---|---|
| Flight time | N/A |
| Altitude | 35000 |
| Route | 0544S11536E EMONA A215 LEBON/N0446F370 A215 ASIXA H777 EPKED H778 SAKTO SAKTO1 |
| Aircraft | A320/M-SDE2E3FGHIRWY/LB1 |
Departure
| Time | N/A |
|---|---|
| Airport | Soekarno-Hatta International Airport (WIII) |
Arrival
| Time | 2026-04-30 11:53 |
|---|---|
| Airport | Port Moresby Jacksons International Airport (AYPY) |
| Time | Latitude | Longitude | Altitude | Speed | Heading |
|---|---|---|---|---|---|
| 2026-04-30 10:28 | -9.72494 | 137.83704 | 35721 ft | 474 kts | 81° |
| 2026-04-30 10:28 | -9.72004 | 137.88150 | 35872 ft | 474 kts | 82° |
| 2026-04-30 10:28 | -9.71420 | 137.93671 | 36080 ft | 474 kts | 82° |
| 2026-04-30 10:29 | -9.70937 | 137.98105 | 36237 ft | 474 kts | 82° |
| 2026-04-30 10:29 | -9.70688 | 138.00310 | 36317 ft | 473 kts | 81° |
| 2026-04-30 10:29 | -9.70177 | 138.04734 | 36478 ft | 473 kts | 82° |
| 2026-04-30 10:29 | -9.69921 | 138.06933 | 36553 ft | 473 kts | 81° |
| 2026-04-30 10:30 | -9.69410 | 138.11356 | 36725 ft | 473 kts | 82° |
| 2026-04-30 10:30 | -9.69159 | 138.13545 | 36810 ft | 472 kts | 81° |
| 2026-04-30 10:30 | -9.68783 | 138.16857 | 36934 ft | 472 kts | 81° |
| 2026-04-30 10:30 | -9.68409 | 138.20163 | 36958 ft | 473 kts | 82° |
| 2026-04-30 10:31 | -9.67649 | 138.26781 | 36952 ft | 473 kts | 81° |
| 2026-04-30 10:31 | -9.66889 | 138.33413 | 36953 ft | 473 kts | 81° |
| 2026-04-30 10:32 | -9.66133 | 138.40029 | 36956 ft | 473 kts | 81° |
| 2026-04-30 10:32 | -9.65371 | 138.46638 | 36956 ft | 472 kts | 81° |
| 2026-04-30 10:33 | -9.64612 | 138.53241 | 36969 ft | 472 kts | 81° |
| 2026-04-30 10:33 | -9.63842 | 138.59840 | 36973 ft | 471 kts | 81° |
| 2026-04-30 10:34 | -9.63079 | 138.66425 | 36982 ft | 470 kts | 81° |
| 2026-04-30 10:34 | -9.62324 | 138.72996 | 36982 ft | 469 kts | 81° |
| 2026-04-30 10:35 | -9.61563 | 138.79535 | 36979 ft | 469 kts | 81° |
| 2026-04-30 10:35 | -9.60794 | 138.86095 | 36975 ft | 468 kts | 81° |
| 2026-04-30 10:36 | -9.60028 | 138.92659 | 36975 ft | 469 kts | 81° |
| 2026-04-30 10:36 | -9.59263 | 138.99222 | 36977 ft | 469 kts | 81° |
| 2026-04-30 10:37 | -9.58500 | 139.05772 | 36975 ft | 468 kts | 81° |
| 2026-04-30 10:37 | -9.57734 | 139.12316 | 36974 ft | 468 kts | 81° |
| 2026-04-30 10:38 | -9.56965 | 139.18875 | 36963 ft | 468 kts | 81° |
| 2026-04-30 10:38 | -9.56197 | 139.25424 | 36971 ft | 468 kts | 81° |
| 2026-04-30 10:39 | -9.55433 | 139.31963 | 36973 ft | 468 kts | 81° |
| 2026-04-30 10:39 | -9.54657 | 139.38499 | 36976 ft | 468 kts | 81° |
| 2026-04-30 10:40 | -9.53878 | 139.45056 | 36967 ft | 468 kts | 81° |
| 2026-04-30 10:40 | -9.53106 | 139.51602 | 36973 ft | 468 kts | 81° |
| 2026-04-30 10:41 | -9.52342 | 139.58105 | 36969 ft | 468 kts | 81° |
| 2026-04-30 10:41 | -9.51581 | 139.64648 | 36969 ft | 468 kts | 81° |
| 2026-04-30 10:42 | -9.50816 | 139.71178 | 36979 ft | 467 kts | 81° |
| 2026-04-30 10:42 | -9.50041 | 139.77698 | 36969 ft | 467 kts | 81° |
| 2026-04-30 10:43 | -9.49254 | 139.84242 | 36977 ft | 467 kts | 81° |
| 2026-04-30 10:43 | -9.48469 | 139.90767 | 36976 ft | 468 kts | 81° |
| 2026-04-30 10:44 | -9.47688 | 139.97319 | 36974 ft | 468 kts | 81° |
| 2026-04-30 10:44 | -9.46902 | 140.03863 | 36977 ft | 468 kts | 81° |
| 2026-04-30 10:45 | -9.46119 | 140.10398 | 36978 ft | 468 kts | 81° |
| 2026-04-30 10:45 | -9.45334 | 140.16940 | 36979 ft | 468 kts | 81° |
| 2026-04-30 10:46 | -9.44548 | 140.23477 | 36973 ft | 468 kts | 81° |
| 2026-04-30 10:46 | -9.43751 | 140.30080 | 36977 ft | 468 kts | 81° |
| 2026-04-30 10:47 | -9.42959 | 140.36632 | 36979 ft | 468 kts | 81° |
| 2026-04-30 10:47 | -9.42168 | 140.43167 | 36982 ft | 469 kts | 81° |
| 2026-04-30 10:48 | -9.41371 | 140.49735 | 36973 ft | 469 kts | 81° |
| 2026-04-30 10:48 | -9.40580 | 140.56272 | 36979 ft | 469 kts | 81° |
| 2026-04-30 10:49 | -9.39780 | 140.62886 | 36972 ft | 469 kts | 81° |
| 2026-04-30 10:49 | -9.38987 | 140.69429 | 36976 ft | 468 kts | 80° |
| 2026-04-30 10:50 | -9.38190 | 140.75975 | 36987 ft | 468 kts | 80° |
| 2026-04-30 10:50 | -9.37388 | 140.82520 | 36984 ft | 468 kts | 80° |
| 2026-04-30 10:51 | -9.36582 | 140.89039 | 36982 ft | 467 kts | 80° |
| 2026-04-30 10:51 | -9.35773 | 140.95619 | 36987 ft | 467 kts | 80° |
| 2026-04-30 10:52 | -9.34976 | 141.02150 | 36984 ft | 467 kts | 80° |
| 2026-04-30 10:52 | -9.34179 | 141.08679 | 36991 ft | 467 kts | 80° |
| 2026-04-30 10:53 | -9.33370 | 141.15259 | 36988 ft | 468 kts | 80° |
| 2026-04-30 10:53 | -9.32562 | 141.21790 | 36983 ft | 468 kts | 80° |
| 2026-04-30 10:54 | -9.31761 | 141.28328 | 36994 ft | 468 kts | 80° |
| 2026-04-30 10:54 | -9.30958 | 141.34862 | 36996 ft | 467 kts | 81° |
| 2026-04-30 10:55 | -9.30150 | 141.41376 | 36995 ft | 467 kts | 80° |
| 2026-04-30 10:55 | -9.29337 | 141.47893 | 36997 ft | 466 kts | 80° |
| 2026-04-30 10:56 | -9.28524 | 141.54386 | 36995 ft | 465 kts | 80° |
| 2026-04-30 10:56 | -9.27707 | 141.60892 | 36991 ft | 465 kts | 80° |
| 2026-04-30 10:57 | -9.26901 | 141.67386 | 37001 ft | 465 kts | 80° |
| 2026-04-30 10:57 | -9.26090 | 141.73919 | 36992 ft | 465 kts | 80° |
| 2026-04-30 10:58 | -9.25275 | 141.80403 | 36985 ft | 464 kts | 80° |
| 2026-04-30 10:58 | -9.24459 | 141.86889 | 36994 ft | 464 kts | 80° |
| 2026-04-30 10:59 | -9.23656 | 141.93350 | 36990 ft | 463 kts | 80° |
| 2026-04-30 10:59 | -9.22845 | 141.99810 | 36998 ft | 462 kts | 80° |
| 2026-04-30 11:00 | -9.22032 | 142.06275 | 36990 ft | 462 kts | 80° |
| 2026-04-30 11:00 | -9.21218 | 142.12730 | 37002 ft | 462 kts | 80° |
| 2026-04-30 11:01 | -9.20410 | 142.19182 | 37001 ft | 463 kts | 80° |
| 2026-04-30 11:01 | -9.19592 | 142.25644 | 36992 ft | 462 kts | 80° |
| 2026-04-30 11:02 | -9.18775 | 142.32087 | 36990 ft | 463 kts | 80° |
| 2026-04-30 11:02 | -9.17960 | 142.38556 | 36993 ft | 463 kts | 80° |
| 2026-04-30 11:03 | -9.17137 | 142.45016 | 36995 ft | 463 kts | 80° |
| 2026-04-30 11:04 | -9.16032 | 142.53672 | 36992 ft | 463 kts | 80° |
| 2026-04-30 11:04 | -9.15215 | 142.60141 | 36997 ft | 464 kts | 80° |
| 2026-04-30 11:05 | -9.14394 | 142.66616 | 36989 ft | 464 kts | 80° |
| 2026-04-30 11:05 | -9.13563 | 142.73089 | 36998 ft | 464 kts | 80° |
| 2026-04-30 11:06 | -9.12736 | 142.79556 | 36999 ft | 464 kts | 80° |
| 2026-04-30 11:06 | -9.11911 | 142.86044 | 36993 ft | 464 kts | 80° |
| 2026-04-30 11:07 | -9.11087 | 142.92528 | 37000 ft | 465 kts | 80° |
| 2026-04-30 11:07 | -9.10260 | 142.99005 | 36992 ft | 465 kts | 80° |
| 2026-04-30 11:08 | -9.09408 | 143.05535 | 36992 ft | 464 kts | 80° |
| 2026-04-30 11:08 | -9.08575 | 143.11995 | 36996 ft | 464 kts | 80° |
| 2026-04-30 11:09 | -9.07747 | 143.18489 | 37000 ft | 464 kts | 79° |
| 2026-04-30 11:09 | -9.05929 | 143.24678 | 36990 ft | 458 kts | 64° |
| 2026-04-30 11:10 | -9.03378 | 143.30584 | 36997 ft | 458 kts | 64° |
| 2026-04-30 11:10 | -9.00842 | 143.36493 | 36995 ft | 458 kts | 64° |
| 2026-04-30 11:11 | -8.98298 | 143.42443 | 36986 ft | 458 kts | 64° |
| 2026-04-30 11:11 | -8.95760 | 143.48354 | 36988 ft | 458 kts | 64° |
| 2026-04-30 11:12 | -8.93224 | 143.54255 | 36989 ft | 458 kts | 64° |
| 2026-04-30 11:12 | -8.90688 | 143.60155 | 36989 ft | 458 kts | 64° |
| 2026-04-30 11:13 | -8.88148 | 143.66063 | 36986 ft | 458 kts | 64° |
| 2026-04-30 11:13 | -8.85606 | 143.71965 | 36987 ft | 458 kts | 64° |
| 2026-04-30 11:14 | -8.83053 | 143.77879 | 36980 ft | 459 kts | 64° |
| 2026-04-30 11:14 | -8.80501 | 143.83806 | 36988 ft | 459 kts | 64° |
| 2026-04-30 11:15 | -8.77954 | 143.89727 | 36993 ft | 460 kts | 64° |
| 2026-04-30 11:15 | -8.75407 | 143.95647 | 36987 ft | 460 kts | 64° |
| 2026-04-30 11:16 | -8.72852 | 144.01570 | 36999 ft | 460 kts | 64° |
| 2026-04-30 11:16 | -8.70271 | 144.07532 | 36977 ft | 460 kts | 64° |
| 2026-04-30 11:17 | -8.67710 | 144.13456 | 36981 ft | 459 kts | 64° |
| 2026-04-30 11:17 | -8.65158 | 144.19372 | 36985 ft | 459 kts | 64° |
| 2026-04-30 11:18 | -8.62603 | 144.25278 | 36974 ft | 459 kts | 64° |
| 2026-04-30 11:18 | -8.58751 | 144.34185 | 36979 ft | 459 kts | 64° |
| 2026-04-30 11:19 | -8.56209 | 144.40071 | 36987 ft | 459 kts | 64° |
| 2026-04-30 11:19 | -8.53637 | 144.46008 | 36976 ft | 459 kts | 64° |
| 2026-04-30 11:20 | -8.51075 | 144.51915 | 36974 ft | 459 kts | 65° |
| 2026-04-30 11:20 | -8.48521 | 144.57809 | 36973 ft | 459 kts | 64° |
| 2026-04-30 11:21 | -8.45961 | 144.63712 | 36969 ft | 459 kts | 64° |
| 2026-04-30 11:21 | -8.43400 | 144.69617 | 36981 ft | 459 kts | 64° |
| 2026-04-30 11:22 | -8.40832 | 144.75536 | 36966 ft | 459 kts | 65° |
| 2026-04-30 11:22 | -8.38272 | 144.81431 | 36971 ft | 459 kts | 65° |
| 2026-04-30 11:23 | -8.35711 | 144.87337 | 36970 ft | 459 kts | 65° |
| 2026-04-30 11:24 | -8.31838 | 144.96231 | 36968 ft | 459 kts | 65° |
| 2026-04-30 11:24 | -8.29269 | 145.02130 | 36982 ft | 459 kts | 65° |
| 2026-04-30 11:25 | -8.25444 | 145.10944 | 36981 ft | 458 kts | 65° |
| 2026-04-30 11:26 | -8.20309 | 145.22722 | 36968 ft | 457 kts | 64° |
| 2026-04-30 11:26 | -8.17748 | 145.28597 | 36969 ft | 457 kts | 65° |
| 2026-04-30 11:27 | -8.15204 | 145.34454 | 36976 ft | 456 kts | 65° |
| 2026-04-30 11:27 | -8.12624 | 145.40367 | 36961 ft | 456 kts | 65° |
| 2026-04-30 11:28 | -8.08787 | 145.49135 | 36969 ft | 455 kts | 65° |
| 2026-04-30 11:29 | -8.06235 | 145.54987 | 36968 ft | 455 kts | 65° |
| 2026-04-30 11:29 | -8.02407 | 145.63758 | 36847 ft | 454 kts | 65° |
| 2026-04-30 11:30 | -7.99915 | 145.69460 | 36284 ft | 438 kts | 65° |
| 2026-04-30 11:30 | -7.98885 | 145.72383 | 36043 ft | 436 kts | 76° |
| 2026-04-30 11:30 | -7.98483 | 145.75404 | 35804 ft | 436 kts | 88° |
| 2026-04-30 11:31 | -7.98727 | 145.78446 | 35565 ft | 437 kts | 100° |
| 2026-04-30 11:31 | -7.99604 | 145.81383 | 35329 ft | 438 kts | 112° |
| 2026-04-30 11:31 | -8.01073 | 145.84075 | 35097 ft | 440 kts | 124° |
| 2026-04-30 11:31 | -8.02296 | 145.85705 | 34940 ft | 440 kts | 126° |
| 2026-04-30 11:32 | -8.04801 | 145.88956 | 34635 ft | 438 kts | 126° |
| 2026-04-30 11:32 | -8.06671 | 145.91379 | 34408 ft | 437 kts | 126° |
| 2026-04-30 11:32 | -8.08531 | 145.93789 | 34184 ft | 435 kts | 126° |
| 2026-04-30 11:33 | -8.11632 | 145.97823 | 33791 ft | 432 kts | 126° |
| 2026-04-30 11:33 | -8.13466 | 146.00212 | 33531 ft | 430 kts | 126° |
| 2026-04-30 11:33 | -8.15301 | 146.02602 | 33275 ft | 429 kts | 126° |
| 2026-04-30 11:33 | -8.17120 | 146.04971 | 33026 ft | 427 kts | 126° |
| 2026-04-30 11:34 | -8.18931 | 146.07327 | 32749 ft | 423 kts | 127° |
| 2026-04-30 11:34 | -8.20729 | 146.09665 | 32244 ft | 420 kts | 127° |
| 2026-04-30 11:34 | -8.22518 | 146.11990 | 31724 ft | 419 kts | 127° |
| 2026-04-30 11:34 | -8.24299 | 146.14306 | 31206 ft | 417 kts | 127° |
| 2026-04-30 11:35 | -8.26077 | 146.16617 | 30696 ft | 416 kts | 127° |
| 2026-04-30 11:35 | -8.27841 | 146.18911 | 30197 ft | 414 kts | 128° |
| 2026-04-30 11:35 | -8.29607 | 146.21214 | 29656 ft | 413 kts | 128° |
| 2026-04-30 11:35 | -8.31376 | 146.23520 | 29173 ft | 409 kts | 128° |
| 2026-04-30 11:36 | -8.33120 | 146.25788 | 28686 ft | 405 kts | 128° |
| 2026-04-30 11:36 | -8.34816 | 146.27997 | 28231 ft | 402 kts | 128° |
| 2026-04-30 11:36 | -8.36540 | 146.30242 | 27763 ft | 399 kts | 128° |
| 2026-04-30 11:36 | -8.38231 | 146.32448 | 27300 ft | 397 kts | 128° |
| 2026-04-30 11:37 | -8.39887 | 146.34612 | 26849 ft | 394 kts | 127° |
| 2026-04-30 11:37 | -8.41578 | 146.36822 | 26370 ft | 392 kts | 127° |
| 2026-04-30 11:37 | -8.43253 | 146.39010 | 25911 ft | 390 kts | 128° |
| 2026-04-30 11:37 | -8.44909 | 146.41165 | 25424 ft | 389 kts | 128° |
| 2026-04-30 11:38 | -8.46567 | 146.43319 | 24945 ft | 387 kts | 128° |
| 2026-04-30 11:38 | -8.48216 | 146.45465 | 24441 ft | 387 kts | 128° |
| 2026-04-30 11:38 | -8.49868 | 146.47619 | 23944 ft | 386 kts | 128° |
| 2026-04-30 11:38 | -8.51529 | 146.49788 | 23419 ft | 386 kts | 128° |
| 2026-04-30 11:39 | -8.53170 | 146.51931 | 22867 ft | 384 kts | 127° |
| 2026-04-30 11:39 | -8.54797 | 146.54055 | 22391 ft | 382 kts | 127° |
| 2026-04-30 11:39 | -8.56420 | 146.56173 | 21906 ft | 379 kts | 127° |
| 2026-04-30 11:39 | -8.58028 | 146.58274 | 21429 ft | 377 kts | 127° |
| 2026-04-30 11:40 | -8.59624 | 146.60359 | 20957 ft | 375 kts | 127° |
| 2026-04-30 11:40 | -8.61215 | 146.62438 | 20478 ft | 373 kts | 127° |
| 2026-04-30 11:40 | -8.62795 | 146.64502 | 20028 ft | 371 kts | 127° |
| 2026-04-30 11:40 | -8.64364 | 146.66551 | 19634 ft | 367 kts | 127° |
| 2026-04-30 11:41 | -8.65912 | 146.68576 | 19212 ft | 364 kts | 127° |
| 2026-04-30 11:41 | -8.67491 | 146.70642 | 18746 ft | 363 kts | 127° |
| 2026-04-30 11:41 | -8.69026 | 146.72648 | 18291 ft | 362 kts | 127° |
| 2026-04-30 11:41 | -8.70711 | 146.74475 | 17972 ft | 357 kts | 139° |
| 2026-04-30 11:42 | -8.72731 | 146.75921 | 17489 ft | 354 kts | 146° |
| 2026-04-30 11:42 | -8.74800 | 146.77283 | 16872 ft | 344 kts | 146° |
| 2026-04-30 11:42 | -8.76769 | 146.78577 | 16462 ft | 333 kts | 146° |
| 2026-04-30 11:42 | -8.78699 | 146.79847 | 16061 ft | 332 kts | 145° |
| 2026-04-30 11:43 | -8.80610 | 146.81111 | 15682 ft | 331 kts | 145° |
| 2026-04-30 11:43 | -8.82563 | 146.82409 | 15264 ft | 331 kts | 145° |
| 2026-04-30 11:43 | -8.84486 | 146.83684 | 14875 ft | 330 kts | 145° |
| 2026-04-30 11:43 | -8.86409 | 146.84956 | 14489 ft | 329 kts | 145° |
| 2026-04-30 11:44 | -8.88306 | 146.86210 | 14106 ft | 329 kts | 145° |
| 2026-04-30 11:44 | -8.90221 | 146.87476 | 13690 ft | 328 kts | 145° |
| 2026-04-30 11:44 | -8.92126 | 146.88736 | 13278 ft | 326 kts | 145° |
| 2026-04-30 11:44 | -8.94021 | 146.89990 | 12882 ft | 324 kts | 145° |
| 2026-04-30 11:45 | -8.95904 | 146.91237 | 12483 ft | 323 kts | 145° |
| 2026-04-30 11:45 | -8.97797 | 146.92490 | 12079 ft | 320 kts | 145° |
| 2026-04-30 11:45 | -8.99651 | 146.93718 | 11685 ft | 319 kts | 145° |
| 2026-04-30 11:45 | -9.01507 | 146.94946 | 11278 ft | 317 kts | 145° |
| 2026-04-30 11:46 | -9.03351 | 146.96165 | 10854 ft | 316 kts | 145° |
| 2026-04-30 11:46 | -9.05195 | 146.97384 | 10439 ft | 315 kts | 145° |
| 2026-04-30 11:46 | -9.07026 | 146.98598 | 10027 ft | 314 kts | 145° |
| 2026-04-30 11:46 | -9.08846 | 146.99805 | 9575 ft | 314 kts | 146° |
| 2026-04-30 11:47 | -9.10671 | 147.01014 | 9137 ft | 312 kts | 146° |
| 2026-04-30 11:47 | -9.12454 | 147.02193 | 8701 ft | 310 kts | 146° |
| 2026-04-30 11:47 | -9.14284 | 147.03402 | 8253 ft | 308 kts | 146° |
| 2026-04-30 11:47 | -9.16071 | 147.04586 | 7798 ft | 306 kts | 145° |
| 2026-04-30 11:48 | -9.17848 | 147.05766 | 7341 ft | 305 kts | 145° |
| 2026-04-30 11:48 | -9.19643 | 147.06952 | 6870 ft | 304 kts | 146° |
| 2026-04-30 11:48 | -9.21433 | 147.08089 | 6399 ft | 304 kts | 147° |
| 2026-04-30 11:48 | -9.23237 | 147.09200 | 5899 ft | 303 kts | 148° |
| 2026-04-30 11:49 | -9.25034 | 147.10296 | 5420 ft | 301 kts | 148° |
| 2026-04-30 11:49 | -9.26788 | 147.11362 | 4939 ft | 287 kts | 148° |
| 2026-04-30 11:49 | -9.28463 | 147.12384 | 4459 ft | 274 kts | 148° |
| 2026-04-30 11:49 | -9.30059 | 147.13360 | 4018 ft | 262 kts | 148° |
| 2026-04-30 11:50 | -9.31580 | 147.14294 | 3640 ft | 249 kts | 148° |
| 2026-04-30 11:50 | -9.33018 | 147.15181 | 3194 ft | 242 kts | 148° |
| 2026-04-30 11:50 | -9.34445 | 147.16064 | 2744 ft | 230 kts | 148° |
| 2026-04-30 11:50 | -9.35758 | 147.16876 | 2360 ft | 213 kts | 148° |
| 2026-04-30 11:51 | -9.36967 | 147.17624 | 2028 ft | 196 kts | 148° |
| 2026-04-30 11:51 | -9.38106 | 147.18329 | 1662 ft | 180 kts | 148° |
| 2026-04-30 11:51 | -9.39121 | 147.18957 | 1378 ft | 164 kts | 148° |
| 2026-04-30 11:51 | -9.40061 | 147.19538 | 1084 ft | 153 kts | 148° |
| 2026-04-30 11:52 | -9.40943 | 147.20082 | 811 ft | 144 kts | 148° |
| 2026-04-30 11:52 | -9.41777 | 147.20598 | 530 ft | 139 kts | 148° |
| 2026-04-30 11:52 | -9.42591 | 147.21104 | 256 ft | 136 kts | 148° |
| 2026-04-30 11:52 | -9.43398 | 147.21588 | 88 ft | 131 kts | 148° |
| 2026-04-30 11:53 | -9.44079 | 147.22003 | 95 ft | 91 kts | 149° |
| 2026-04-30 11:53 | -9.44477 | 147.22249 | 98 ft | 43 kts | 148° |
| 2026-04-30 11:53 | -9.44716 | 147.22397 | 100 ft | 38 kts | 149° |
| 2026-04-30 11:53 | -9.44937 | 147.22531 | 104 ft | 35 kts | 149° |
| 2026-04-30 11:54 | -9.45134 | 147.22655 | 104 ft | 19 kts | 146° |
| 2026-04-30 11:54 | -9.45164 | 147.22715 | 102 ft | 8 kts | 158° |
| 2026-04-30 11:54 | -9.45174 | 147.22680 | 106 ft | 11 kts | 308° |
| 2026-04-30 11:54 | -9.45056 | 147.22604 | 103 ft | 22 kts | 326° |
| 2026-04-30 11:55 | -9.44913 | 147.22517 | 102 ft | 26 kts | 328° |
| 2026-04-30 11:55 | -9.44750 | 147.22417 | 98 ft | 29 kts | 329° |
| 2026-04-30 11:55 | -9.44571 | 147.22307 | 99 ft | 31 kts | 328° |
| 2026-04-30 11:55 | -9.44479 | 147.22185 | 97 ft | 12 kts | 219° |
| 2026-04-30 11:56 | -9.44531 | 147.22123 | 95 ft | 10 kts | 241° |
| 2026-04-30 11:56 | -9.44559 | 147.22076 | 99 ft | 6 kts | 238° |
| 2026-04-30 11:56 | -9.44572 | 147.22055 | 99 ft | 3 kts | 238° |
| 2026-04-30 11:56 | -9.44587 | 147.22031 | 99 ft | 5 kts | 237° |
| 2026-04-30 11:57 | -9.44644 | 147.21939 | 102 ft | 20 kts | 237° |
| 2026-04-30 11:57 | -9.44598 | 147.21861 | 105 ft | 17 kts | 330° |
| 2026-04-30 11:57 | -9.44486 | 147.21793 | 102 ft | 20 kts | 328° |
| 2026-04-30 11:57 | -9.44355 | 147.21714 | 99 ft | 24 kts | 328° |
| 2026-04-30 11:58 | -9.44253 | 147.21650 | 97 ft | 27 kts | 329° |
| 2026-04-30 11:58 | -9.44082 | 147.21545 | 93 ft | 31 kts | 329° |
| 2026-04-30 11:58 | -9.43915 | 147.21440 | 86 ft | 28 kts | 328° |
| 2026-04-30 11:58 | -9.43874 | 147.21272 | 85 ft | 18 kts | 292° |
| 2026-04-30 11:59 | -9.43870 | 147.21214 | 83 ft | 9 kts | 229° |
| 2026-04-30 11:59 | -9.43872 | 147.21210 | 84 ft | 0 kts | 238° |